sensor_id;sensor_type;location;lat;lon;timestamp;pressure;altitude;pressure_sealevel;temperature;humidity
55263;BME280;41125;48.752;9.168;2023-03-14T00:00:17;95294.75;;;8.17;100.00
55263;BME280;41125;48.752;9.168;2023-03-14T00:00:50;95286.34;;;8.19;100.00
55263;BME280;41125;48.752;9.168;2023-03-14T00:01:23;95286.34;;;8.19;100.00
55263;BME280;41125;48.752;9.168;2023-03-14T00:01:54;95277.75;;;8.17;100.00
55263;BME280;41125;48.752;9.168;2023-03-14T00:02:26;95285.38;;;8.15;100.00
55263;BME280;41125;48.752;9.168;2023-03-14T00:02:58;95280.28;;;8.13;100.00
55263;BME280;41125;48.752;9.168;2023-03-14T00:03:29;95289.97;;;8.14;100.00
55263;BME280;41125;48.752;9.168;2023-03-14T00:04:04;95294.59;;;8.14;100.00
55263;BME280;41125;48.752;9.168;2023-03-14T00:04:36;95291.75;;;8.19;100.00
55263;BME280;41125;48.752;9.168;2023-03-14T00:05:09;95279.81;;;8.20;100.00
55263;BME280;41125;48.752;9.168;2023-03-14T00:05:41;95287.94;;;8.20;100.00
55263;BME280;41125;48.752;9.168;2023-03-14T00:06:13;95272.34;;;8.17;100.00
55263;BME280;41125;48.752;9.168;2023-03-14T00:06:47;95270.91;;;8.19;100.00
55263;BME280;41125;48.752;9.168;2023-03-14T00:07:20;95268.87;;;8.25;100.00
55263;BME280;41125;48.752;9.168;2023-03-14T00:07:52;95278.06;;;8.24;100.00
55263;BME280;41125;48.752;9.168;2023-03-14T00:08:24;95287.94;;;8.20;100.00
55263;BME280;41125;48.752;9.168;2023-03-14T00:08:56;95301.75;;;8.18;100.00
55263;BME280;41125;48.752;9.168;2023-03-14T00:09:27;95304.13;;;8.20;100.00
55263;BME280;41125;48.752;9.168;2023-03-14T00:10:05;95301.91;;;8.22;100.00
55263;BME280;41125;48.752;9.168;2023-03-14T00:11:44;95292.22;;;8.21;100.00
55263;BME280;41125;48.752;9.168;2023-03-14T00:12:16;95294.44;;;8.19;100.00
55263;BME280;41125;48.752;9.168;2023-03-14T00:12:48;95290.63;;;8.20;100.00
55263;BME280;41125;48.752;9.168;2023-03-14T00:13:19;95296.34;;;8.18;100.00
55263;BME280;41125;48.752;9.168;2023-03-14T00:13:51;95284.25;;;8.16;100.00
55263;BME280;41125;48.752;9.168;2023-03-14T00:14:23;95280.94;;;8.19;100.00
55263;BME280;41125;48.752;9.168;2023-03-14T00:14:58;95282.53;;;8.20;100.00
55263;BME280;41125;48.752;9.168;2023-03-14T00:15:33;95287.28;;;8.23;100.00
55263;BME280;41125;48.752;9.168;2023-03-14T00:16:10;95280.94;;;8.19;100.00
55263;BME280;41125;48.752;9.168;2023-03-14T00:16:46;95275.37;;;8.15;100.00
55263;BME280;41125;48.752;9.168;2023-03-14T00:17:17;95277.91;;;8.12;100.00
55263;BME280;41125;48.752;9.168;2023-03-14T00:17:49;95282.19;;;8.13;100.00
55263;BME280;41125;48.752;9.168;2023-03-14T00:18:20;95280.12;;;8.10;100.00
55263;BME280;41125;48.752;9.168;2023-03-14T00:18:56;95280.44;;;8.08;100.00
55263;BME280;41125;48.752;9.168;2023-03-14T00:19:30;95275.81;;;8.08;100.00
55263;BME280;41125;48.752;9.168;2023-03-14T00:20:02;95281.84;;;8.05;100.00
55263;BME280;41125;48.752;9.168;2023-03-14T00:20:39;95288.22;;;8.10;100.00
55263;BME280;41125;48.752;9.168;2023-03-14T00:21:11;95282.19;;;8.13;100.00
55263;BME280;41125;48.752;9.168;2023-03-14T00:21:42;95286.31;;;8.10;100.00
55263;BME280;41125;48.752;9.168;2023-03-14T00:22:14;95285.03;;;8.07;100.00
55263;BME280;41125;48.752;9.168;2023-03-14T00:22:46;95269.78;;;8.12;100.00
55263;BME280;41125;48.752;9.168;2023-03-14T00:23:17;95273.94;;;8.18;100.00
55263;BME280;41125;48.752;9.168;2023-03-14T00:23:48;95267.75;;;8.17;100.00
55263;BME280;41125;48.752;9.168;2023-03-14T00:24:20;95266.63;;;8.18;100.00
55263;BME280;41125;48.752;9.168;2023-03-14T00:24:52;95258.84;;;8.17;100.00
55263;BME280;41125;48.752;9.168;2023-03-14T00:25:23;95253.75;;;8.15;100.00
55263;BME280;41125;48.752;9.168;2023-03-14T00:26:02;95251.38;;;8.14;100.00
55263;BME280;41125;48.752;9.168;2023-03-14T00:26:37;95252.94;;;8.15;100.00
55263;BME280;41125;48.752;9.168;2023-03-14T00:27:08;95256.12;;;8.17;100.00
55263;BME280;41125;48.752;9.168;2023-03-14T00:27:40;95253.91;;;8.19;100.00
55263;BME280;41125;48.752;9.168;2023-03-14T00:28:11;95246.44;;;8.16;100.00
55263;BME280;41125;48.752;9.168;2023-03-14T00:28:44;95250.56;;;8.13;100.00
55263;BME280;41125;48.752;9.168;2023-03-14T00:29:16;95248.19;;;8.12;100.00
55263;BME280;41125;48.752;9.168;2023-03-14T00:29:47;95253.59;;;8.12;100.00
55263;BME280;41125;48.752;9.168;2023-03-14T00:30:21;95254.69;;;8.11;100.00
55263;BME280;41125;48.752;9.168;2023-03-14T00:30:53;95267.41;;;8.10;100.00
55263;BME280;41125;48.752;9.168;2023-03-14T00:31:25;95262.63;;;8.07;100.00
55263;BME280;41125;48.752;9.168;2023-03-14T00:31:56;95252.63;;;8.07;100.00
55263;BME280;41125;48.752;9.168;2023-03-14T00:32:27;95258.03;;;8.07;100.00
55263;BME280;41125;48.752;9.168;2023-03-14T00:32:59;95264.22;;;8.08;100.00
55263;BME280;41125;48.752;9.168;2023-03-14T00:33:30;95266.44;;;8.06;100.00
55263;BME280;41125;48.752;9.168;2023-03-14T00:34:01;95265.66;;;8.05;100.00
55263;BME280;41125;48.752;9.168;2023-03-14T00:34:33;95267.87;;;8.03;100.00
55263;BME280;41125;48.752;9.168;2023-03-14T00:35:05;95272.16;;;8.04;100.00
55263;BME280;41125;48.752;9.168;2023-03-14T00:35:37;95264.22;;;8.08;100.00
55263;BME280;41125;48.752;9.168;2023-03-14T00:36:13;95263.44;;;8.07;100.00
55263;BME280;41125;48.752;9.168;2023-03-14T00:36:45;95264.06;;;8.04;100.00
55263;BME280;41125;48.752;9.168;2023-03-14T00:37:16;95262.47;;;8.03;100.00
55263;BME280;41125;48.752;9.168;2023-03-14T00:37:48;95263.56;;;8.02;100.00
55263;BME280;41125;48.752;9.168;2023-03-14T00:38:19;95263.09;;;8.00;100.00
55263;BME280;41125;48.752;9.168;2023-03-14T00:38:52;95265.78;;;8.00;100.00
55263;BME280;41125;48.752;9.168;2023-03-14T00:39:23;95274.38;;;8.02;100.00
55263;BME280;41125;48.752;9.168;2023-03-14T00:39:56;95274.87;;;8.04;100.00
55263;BME280;41125;48.752;9.168;2023-03-14T00:40:29;95269.63;;;8.08;100.00
55263;BME280;41125;48.752;9.168;2023-03-14T00:41:09;95272.00;;;8.10;100.00
55263;BME280;41125;48.752;9.168;2023-03-14T00:41:42;95282.19;;;8.13;100.00
55263;BME280;41125;48.752;9.168;2023-03-14T00:42:14;95284.09;;;8.12;100.00
55263;BME280;41125;48.752;9.168;2023-03-14T00:42:45;95282.19;;;8.13;100.00
55263;BME280;41125;48.752;9.168;2023-03-14T00:43:18;95280.59;;;8.12;100.00
55263;BME280;41125;48.752;9.168;2023-03-14T00:43:50;95274.56;;;8.15;100.00
55263;BME280;41125;48.752;9.168;2023-03-14T00:44:23;95271.38;;;8.13;100.00
55263;BME280;41125;48.752;9.168;2023-03-14T00:44:58;95277.41;;;8.10;100.00
55263;BME280;41125;48.752;9.168;2023-03-14T00:45:30;95276.44;;;8.05;100.00
55263;BME280;41125;48.752;9.168;2023-03-14T00:46:02;95272.62;;;8.06;100.00
55263;BME280;41125;48.752;9.168;2023-03-14T00:46:34;95277.25;;;8.06;100.00
55263;BME280;41125;48.752;9.168;2023-03-14T00:47:06;95260.41;;;8.09;100.00
55263;BME280;41125;48.752;9.168;2023-03-14T00:47:37;95266.59;;;8.10;100.00
55263;BME280;41125;48.752;9.168;2023-03-14T00:48:09;95269.63;;;8.08;100.00
55263;BME280;41125;48.752;9.168;2023-03-14T00:48:41;95266.59;;;8.10;100.00
55263;BME280;41125;48.752;9.168;2023-03-14T00:49:12;95266.59;;;8.10;100.00
55263;BME280;41125;48.752;9.168;2023-03-14T00:49:44;95265.81;;;8.09;100.00
55263;BME280;41125;48.752;9.168;2023-03-14T00:50:16;95267.72;;;8.08;100.00
55263;BME280;41125;48.752;9.168;2023-03-14T00:50:48;95259.63;;;8.08;100.00
55263;BME280;41125;48.752;9.168;2023-03-14T00:51:19;95258.66;;;8.04;100.00
55263;BME280;41125;48.752;9.168;2023-03-14T00:51:51;95254.69;;;8.02;100.00
55263;BME280;41125;48.752;9.168;2023-03-14T00:52:23;95258.81;;;8.08;100.00
55263;BME280;41125;48.752;9.168;2023-03-14T00:52:55;95271.06;;;8.05;100.00
55263;BME280;41125;48.752;9.168;2023-03-14T00:53:26;95270.56;;;8.03;100.00
55263;BME280;41125;48.752;9.168;2023-03-14T00:54:00;95273.91;;;8.00;100.00
55263;BME280;41125;48.752;9.168;2023-03-14T00:54:31;95271.19;;;8.00;100.00
55263;BME280;41125;48.752;9.168;2023-03-14T00:55:07;95272.31;;;7.99;100.00
55263;BME280;41125;48.752;9.168;2023-03-14T00:55:40;95273.09;;;8.00;100.00
55263;BME280;41125;48.752;9.168;2023-03-14T00:56:12;95271.69;;;8.02;100.00
55263;BME280;41125;48.752;9.168;2023-03-14T00:56:47;95273.28;;;8.03;100.00
55263;BME280;41125;48.752;9.168;2023-03-14T00:57:18;95281.84;;;8.05;100.00
55263;BME280;41125;48.752;9.168;2023-03-14T00:57:50;95277.88;;;8.03;100.00
55263;BME280;41125;48.752;9.168;2023-03-14T00:58:22;95279.62;;;8.07;100.00
55263;BME280;41125;48.752;9.168;2023-03-14T00:58:54;95279.31;;;8.09;100.00
55263;BME280;41125;48.752;9.168;2023-03-14T00:59:27;95281.72;;;8.11;100.00
55263;BME280;41125;48.752;9.168;2023-03-14T00:59:58;95283.44;;;8.06;100.00
55263;BME280;41125;48.752;9.168;2023-03-14T01:00:30;95284.06;;;8.03;100.00
55263;BME280;41125;48.752;9.168;2023-03-14T01:01:09;95284.69;;;8.00;100.00
55263;BME280;41125;48.752;9.168;2023-03-14T01:01:41;95284.22;;;7.98;100.00
55263;BME280;41125;48.752;9.168;2023-03-14T01:02:13;95284.56;;;7.97;100.00
55263;BME280;41125;48.752;9.168;2023-03-14T01:02:44;95288.38;;;7.96;100.00
55263;BME280;41125;48.752;9.168;2023-03-14T01:03:16;95287.56;;;7.95;100.00
55263;BME280;41125;48.752;9.168;2023-03-14T01:03:50;95283.78;;;7.96;100.00
55263;BME280;41125;48.752;9.168;2023-03-14T01:04:22;95291.06;;;7.96;100.00
55263;BME280;41125;48.752;9.168;2023-03-14T01:04:54;95296.47;;;7.96;100.00
55263;BME280;41125;48.752;9.168;2023-03-14T01:05:28;95299.50;;;7.94;100.00
55263;BME280;41125;48.752;9.168;2023-03-14T01:06:20;95289.78;;;7.93;100.00
55263;BME280;41125;48.752;9.168;2023-03-14T01:06:51;95289.78;;;7.93;100.00
55263;BME280;41125;48.752;9.168;2023-03-14T01:07:23;95293.59;;;7.92;100.00
55263;BME280;41125;48.752;9.168;2023-03-14T01:07:55;95296.94;;;7.98;100.00
55263;BME280;41125;48.752;9.168;2023-03-14T01:08:43;95296.13;;;7.97;100.00
55263;BME280;41125;48.752;9.168;2023-03-14T01:09:15;95305.69;;;8.03;100.00
55263;BME280;41125;48.752;9.168;2023-03-14T01:09:51;95299.19;;;8.13;100.00
55263;BME280;41125;48.752;9.168;2023-03-14T01:10:24;95306.34;;;8.18;100.00
55263;BME280;41125;48.752;9.168;2023-03-14T01:10:59;95302.38;;;8.15;100.00
55263;BME280;41125;48.752;9.168;2023-03-14T01:11:32;95299.19;;;8.13;100.00
55263;BME280;41125;48.752;9.168;2023-03-14T01:12:04;95304.91;;;8.12;100.00
55263;BME280;41125;48.752;9.168;2023-03-14T01:12:36;95303.31;;;8.11;100.00
55263;BME280;41125;48.752;9.168;2023-03-14T01:13:08;95292.03;;;8.08;100.00
55263;BME280;41125;48.752;9.168;2023-03-14T01:13:40;95302.22;;;8.12;100.00
55263;BME280;41125;48.752;9.168;2023-03-14T01:14:14;95294.41;;;8.10;100.00
55263;BME280;41125;48.752;9.168;2023-03-14T01:14:47;95302.84;;;8.08;100.00
55263;BME280;41125;48.752;9.168;2023-03-14T01:15:19;95293.94;;;8.08;100.00
55263;BME280;41125;48.752;9.168;2023-03-14T01:15:50;95292.03;;;8.08;100.00
55263;BME280;41125;48.752;9.168;2023-03-14T01:16:24;95289.81;;;8.11;100.00
55263;BME280;41125;48.752;9.168;2023-03-14T01:16:56;95291.41;;;8.12;100.00
55263;BME280;41125;48.752;9.168;2023-03-14T01:17:32;95288.22;;;8.10;100.00
55263;BME280;41125;48.752;9.168;2023-03-14T01:18:04;95290.94;;;8.10;100.00
55263;BME280;41125;48.752;9.168;2023-03-14T01:18:36;95297.44;;;8.08;100.00
55263;BME280;41125;48.752;9.168;2023-03-14T01:19:08;95292.81;;;8.09;100.00
55263;BME280;41125;48.752;9.168;2023-03-14T01:19:40;95289.81;;;8.11;100.00
55263;BME280;41125;48.752;9.168;2023-03-14T01:20:13;95281.41;;;8.12;100.00
55263;BME280;41125;48.752;9.168;2023-03-14T01:20:45;95289.19;;;8.14;100.00
55263;BME280;41125;48.752;9.168;2023-03-14T01:21:23;95276.63;;;8.18;100.00
55263;BME280;41125;48.752;9.168;2023-03-14T01:21:55;95274.72;;;8.18;100.00
55263;BME280;41125;48.752;9.168;2023-03-14T01:22:27;95280.44;;;8.17;100.00
55263;BME280;41125;48.752;9.168;2023-03-14T01:22:58;95276.16;;;8.16;100.00
55263;BME280;41125;48.752;9.168;2023-03-14T01:23:30;95289.38;;;8.26;100.00
55263;BME280;41125;48.752;9.168;2023-03-14T01:24:03;95276.97;;;8.25;100.00
55263;BME280;41125;48.752;9.168;2023-03-14T01:24:36;95279.66;;;8.25;100.00
55263;BME280;41125;48.752;9.168;2023-03-14T01:25:10;95276.50;;;8.23;100.00
55263;BME280;41125;48.752;9.168;2023-03-14T01:25:42;95273.31;;;8.21;100.00
55263;BME280;41125;48.752;9.168;2023-03-14T01:26:16;95275.53;;;8.19;100.00
55263;BME280;41125;48.752;9.168;2023-03-14T01:26:50;95269.97;;;8.15;100.00
55263;BME280;41125;48.752;9.168;2023-03-14T01:27:24;95271.38;;;8.13;100.00
55263;BME280;41125;48.752;9.168;2023-03-14T01:27:58;95262.81;;;8.11;100.00
55263;BME280;41125;48.752;9.168;2023-03-14T01:28:32;95259.63;;;8.08;100.00
55263;BME280;41125;48.752;9.168;2023-03-14T01:29:03;95262.31;;;8.08;100.00
55263;BME280;41125;48.752;9.168;2023-03-14T01:29:36;95254.22;;;8.08;100.00
55263;BME280;41125;48.752;9.168;2023-03-14T01:30:09;95249.44;;;8.05;100.00
55263;BME280;41125;48.752;9.168;2023-03-14T01:30:41;95258.03;;;8.07;100.00
55263;BME280;41125;48.752;9.168;2023-03-14T01:31:12;95247.22;;;8.07;100.00
55263;BME280;41125;48.752;9.168;2023-03-14T01:31:44;95246.13;;;8.08;100.00
55263;BME280;41125;48.752;9.168;2023-03-14T01:32:15;95250.41;;;8.10;100.00
55263;BME280;41125;48.752;9.168;2023-03-14T01:32:48;95246.28;;;8.21;100.00
55263;BME280;41125;48.752;9.168;2023-03-14T01:33:21;95254.88;;;8.23;100.00
55263;BME280;41125;48.752;9.168;2023-03-14T01:33:54;95250.56;;;8.22;100.00
55263;BME280;41125;48.752;9.168;2023-03-14T01:34:25;95250.56;;;8.22;100.00
55263;BME280;41125;48.752;9.168;2023-03-14T01:34:57;95246.75;;;8.23;100.00
55263;BME280;41125;48.752;9.168;2023-03-14T01:35:28;95248.19;;;8.20;100.00
55263;BME280;41125;48.752;9.168;2023-03-14T01:36:00;95241.50;;;8.18;100.00
55263;BME280;41125;48.752;9.168;2023-03-14T01:36:33;95246.44;;;8.16;100.00
55263;BME280;41125;48.752;9.168;2023-03-14T01:37:05;95245.97;;;8.14;100.00
55263;BME280;41125;48.752;9.168;2023-03-14T01:37:39;95248.97;;;8.12;100.00
55263;BME280;41125;48.752;9.168;2023-03-14T01:38:10;95246.13;;;8.17;100.00
55263;BME280;41125;48.752;9.168;2023-03-14T01:38:42;95247.88;;;8.22;100.00
55263;BME280;41125;48.752;9.168;2023-03-14T01:39:14;95246.75;;;8.23;100.00
55263;BME280;41125;48.752;9.168;2023-03-14T01:39:47;95252.03;;;8.28;100.00
55263;BME280;41125;48.752;9.168;2023-03-14T01:40:19;95235.81;;;8.28;100.00
55263;BME280;41125;48.752;9.168;2023-03-14T01:40:51;95237.56;;;8.24;100.00
55263;BME280;41125;48.752;9.168;2023-03-14T01:41:24;95229.75;;;8.22;100.00
55263;BME280;41125;48.752;9.168;2023-03-14T01:41:59;95225.00;;;8.19;100.00
55263;BME280;41125;48.752;9.168;2023-03-14T01:42:32;95226.91;;;8.19;100.00
55263;BME280;41125;48.752;9.168;2023-03-14T01:43:14;95215.31;;;8.27;100.00
55263;BME280;41125;48.752;9.168;2023-03-14T01:43:48;95218.97;;;8.31;100.00
55263;BME280;41125;48.752;9.168;2023-03-14T01:44:20;95213.87;;;8.38;100.00
55263;BME280;41125;48.752;9.168;2023-03-14T01:44:55;95219.59;;;8.36;100.00
55263;BME280;41125;48.752;9.168;2023-03-14T01:46:38;95209.09;;;8.35;100.00
55263;BME280;41125;48.752;9.168;2023-03-14T01:47:09;95211.97;;;8.30;100.00
55263;BME280;41125;48.752;9.168;2023-03-14T01:47:41;95205.28;;;8.27;100.00
55263;BME280;41125;48.752;9.168;2023-03-14T01:48:12;95202.91;;;8.26;100.00
55263;BME280;41125;48.752;9.168;2023-03-14T01:49:24;95197.03;;;8.32;100.00
55263;BME280;41125;48.752;9.168;2023-03-14T01:50:06;95199.41;;;8.34;100.00
55263;BME280;41125;48.752;9.168;2023-03-14T01:50:39;95203.06;;;8.38;100.00
55263;BME280;41125;48.752;9.168;2023-03-14T01:51:18;95196.69;;;8.34;100.00
55263;BME280;41125;48.752;9.168;2023-03-14T01:52:11;95194.47;;;8.27;100.00
55263;BME280;41125;48.752;9.168;2023-03-14T01:52:47;95199.72;;;8.24;100.00
55263;BME280;41125;48.752;9.168;2023-03-14T01:53:20;95216.56;;;8.21;100.00
55263;BME280;41125;48.752;9.168;2023-03-14T01:53:58;95201.16;;;8.30;100.00
55263;BME280;41125;48.752;9.168;2023-03-14T01:54:37;95201.16;;;8.30;100.00
55263;BME280;41125;48.752;9.168;2023-03-14T01:55:14;95205.28;;;8.36;100.00
55263;BME280;41125;48.752;9.168;2023-03-14T01:55:52;95198.91;;;8.32;100.00
55263;BME280;41125;48.752;9.168;2023-03-14T01:56:28;95192.56;;;8.28;100.00
55263;BME280;41125;48.752;9.168;2023-03-14T01:57:30;95192.56;;;8.45;100.00
55263;BME280;41125;48.752;9.168;2023-03-14T01:58:04;95183.00;;;8.56;98.96
55263;BME280;41125;48.752;9.168;2023-03-14T01:58:36;95183.00;;;8.56;98.45
55263;BME280;41125;48.752;9.168;2023-03-14T01:59:08;95184.28;;;8.50;98.65
55263;BME280;41125;48.752;9.168;2023-03-14T01:59:45;95194.31;;;8.41;99.07
55263;BME280;41125;48.752;9.168;2023-03-14T02:00:20;95187.47;;;8.35;99.64
55263;BME280;41125;48.752;9.168;2023-03-14T02:00:53;95181.12;;;8.31;100.00
55263;BME280;41125;48.752;9.168;2023-03-14T02:01:27;95199.56;;;8.29;100.00
55263;BME280;41125;48.752;9.168;2023-03-14T02:02:02;95187.81;;;8.25;100.00
55263;BME280;41125;48.752;9.168;2023-03-14T02:02:46;95199.25;;;8.22;100.00
55263;BME280;41125;48.752;9.168;2023-03-14T02:03:20;95193.84;;;8.22;100.00
55263;BME280;41125;48.752;9.168;2023-03-14T02:03:55;95188.44;;;8.22;100.00
55263;BME280;41125;48.752;9.168;2023-03-14T02:04:30;95196.88;;;8.29;100.00
55263;BME280;41125;48.752;9.168;2023-03-14T02:05:05;95187.81;;;8.25;100.00
55263;BME280;41125;48.752;9.168;2023-03-14T02:05:39;95201.78;;;8.27;100.00
55263;BME280;41125;48.752;9.168;2023-03-14T02:06:14;95193.03;;;8.30;100.00
55263;BME280;41125;48.752;9.168;2023-03-14T02:07:10;95197.19;;;8.45;98.29
55263;BME280;41125;48.752;9.168;2023-03-14T02:07:54;95202.59;;;8.45;98.46
55263;BME280;41125;48.752;9.168;2023-03-14T02:08:27;95197.97;;;8.45;98.51
55263;BME280;41125;48.752;9.168;2023-03-14T02:09:00;95196.53;;;8.39;98.47
55263;BME280;41125;48.752;9.168;2023-03-14T02:09:31;95196.69;;;8.34;98.69
55263;BME280;41125;48.752;9.168;2023-03-14T02:10:04;95196.88;;;8.29;99.30
55263;BME280;41125;48.752;9.168;2023-03-14T02:10:43;95204.00;;;8.25;99.56
55263;BME280;41125;48.752;9.168;2023-03-14T02:11:17;95200.84;;;8.23;99.95
55263;BME280;41125;48.752;9.168;2023-03-14T02:11:51;95194.63;;;8.31;100.00
55263;BME280;41125;48.752;9.168;2023-03-14T02:12:23;95201.47;;;8.37;100.00
55263;BME280;41125;48.752;9.168;2023-03-14T02:13:00;95193.50;;;8.32;99.89
55263;BME280;41125;48.752;9.168;2023-03-14T02:13:34;95199.09;;;8.27;99.99
55263;BME280;41125;48.752;9.168;2023-03-14T02:14:05;95198.59;;;8.25;100.00
55263;BME280;41125;48.752;9.168;2023-03-14T02:14:39;95197.03;;;8.24;100.00
55263;BME280;41125;48.752;9.168;2023-03-14T02:15:13;95199.25;;;8.22;100.00
55263;BME280;41125;48.752;9.168;2023-03-14T02:15:44;95190.19;;;8.18;100.00
55263;BME280;41125;48.752;9.168;2023-03-14T02:16:16;95190.81;;;8.15;100.00
55263;BME280;41125;48.752;9.168;2023-03-14T02:16:48;95204.16;;;8.11;100.00
55263;BME280;41125;48.752;9.168;2023-03-14T02:17:20;95195.91;;;8.07;100.00
55263;BME280;41125;48.752;9.168;2023-03-14T02:17:53;95198.59;;;8.07;100.00
55263;BME280;41125;48.752;9.168;2023-03-14T02:18:25;95195.41;;;8.05;100.00
55263;BME280;41125;48.752;9.168;2023-03-14T02:18:57;95201.78;;;8.10;100.00
55263;BME280;41125;48.752;9.168;2023-03-14T02:20:00;95197.00;;;8.06;100.00
55263;BME280;41125;48.752;9.168;2023-03-14T02:20:57;95196.53;;;8.04;100.00
55263;BME280;41125;48.752;9.168;2023-03-14T02:22:02;95195.09;;;7.98;100.00
55263;BME280;41125;48.752;9.168;2023-03-14T02:22:38;95195.75;;;7.95;100.00
55263;BME280;41125;48.752;9.168;2023-03-14T02:23:13;95192.25;;;7.95;100.00
55263;BME280;41125;48.752;9.168;2023-03-14T02:24:27;95194.16;;;7.94;100.00
55263;BME280;41125;48.752;9.168;2023-03-14T02:25:38;95189.41;;;7.91;100.00
55263;BME280;41125;48.752;9.168;2023-03-14T02:26:22;95189.72;;;7.90;100.00
55263;BME280;41125;48.752;9.168;2023-03-14T02:27:12;95189.22;;;7.88;100.00
55263;BME280;41125;48.752;9.168;2023-03-14T02:27:45;95177.94;;;7.86;100.00
55263;BME280;41125;48.752;9.168;2023-03-14T02:28:17;95175.25;;;7.86;100.00
55263;BME280;41125;48.752;9.168;2023-03-14T02:28:50;95176.03;;;7.86;100.00
55263;BME280;41125;48.752;9.168;2023-03-14T02:29:22;95176.84;;;7.87;100.00
55263;BME280;41125;48.752;9.168;2023-03-14T02:30:05;95176.34;;;7.85;100.00
55263;BME280;41125;48.752;9.168;2023-03-14T02:30:38;95176.03;;;7.86;100.00
55263;BME280;41125;48.752;9.168;2023-03-14T02:31:09;95170.66;;;7.86;100.00
55263;BME280;41125;48.752;9.168;2023-03-14T02:31:41;95174.94;;;7.87;100.00
55263;BME280;41125;48.752;9.168;2023-03-14T02:32:14;95173.03;;;7.88;100.00
55263;BME280;41125;48.752;9.168;2023-03-14T02:32:51;95157.94;;;7.95;100.00
55263;BME280;41125;48.752;9.168;2023-03-14T02:33:24;95159.81;;;8.03;100.00
55263;BME280;41125;48.752;9.168;2023-03-14T02:33:57;95169.53;;;8.04;100.00
55263;BME280;41125;48.752;9.168;2023-03-14T02:34:30;95169.03;;;8.02;100.00
55263;BME280;41125;48.752;9.168;2023-03-14T02:35:10;95162.53;;;8.03;100.00
55263;BME280;41125;48.752;9.168;2023-03-14T02:35:51;95163.34;;;7.95;100.00
55263;BME280;41125;48.752;9.168;2023-03-14T02:36:24;95155.69;;;7.97;100.00
55263;BME280;41125;48.752;9.168;2023-03-14T02:36:56;95161.09;;;7.97;100.00
55263;BME280;41125;48.752;9.168;2023-03-14T02:37:41;95162.06;;;8.01;100.00
55263;BME280;41125;48.752;9.168;2023-03-14T02:38:28;95172.84;;;8.01;100.00
55263;BME280;41125;48.752;9.168;2023-03-14T02:39:15;95179.06;;;7.93;100.00
55263;BME280;41125;48.752;9.168;2023-03-14T02:39:50;95171.75;;;7.94;100.00
55263;BME280;41125;48.752;9.168;2023-03-14T02:40:22;95171.59;;;7.90;100.00
55263;BME280;41125;48.752;9.168;2023-03-14T02:40:53;95176.37;;;7.93;100.00
55263;BME280;41125;48.752;9.168;2023-03-14T02:41:25;95169.37;;;7.92;100.00
55263;BME280;41125;48.752;9.168;2023-03-14T02:41:56;95169.37;;;7.92;100.00
55263;BME280;41125;48.752;9.168;2023-03-14T02:42:28;95163.03;;;7.97;100.00
55263;BME280;41125;48.752;9.168;2023-03-14T02:42:59;95175.75;;;7.96;100.00
55263;BME280;41125;48.752;9.168;2023-03-14T02:43:31;95168.59;;;7.92;100.00
55263;BME280;41125;48.752;9.168;2023-03-14T02:44:02;95186.06;;;7.94;100.00
55263;BME280;41125;48.752;9.168;2023-03-14T02:44:34;95175.75;;;7.96;100.00
55263;BME280;41125;48.752;9.168;2023-03-14T02:45:33;95174.75;;;8.01;100.00
55263;BME280;41125;48.752;9.168;2023-03-14T02:46:05;95164.28;;;7.99;100.00
55263;BME280;41125;48.752;9.168;2023-03-14T02:46:37;95161.09;;;7.97;100.00
55263;BME280;41125;48.752;9.168;2023-03-14T02:47:11;95157.16;;;7.95;100.00
55263;BME280;41125;48.752;9.168;2023-03-14T02:47:46;95145.22;;;8.04;100.00
55263;BME280;41125;48.752;9.168;2023-03-14T02:48:35;95147.91;;;8.13;100.00
55263;BME280;41125;48.752;9.168;2023-03-14T02:49:11;95149.81;;;8.13;100.00
55263;BME280;41125;48.752;9.168;2023-03-14T02:49:43;95144.25;;;8.18;100.00
55263;BME280;41125;48.752;9.168;2023-03-14T02:50:19;95156.50;;;8.15;100.00
55263;BME280;41125;48.752;9.168;2023-03-14T02:50:56;95151.56;;;8.17;100.00
55263;BME280;41125;48.752;9.168;2023-03-14T02:51:29;95151.88;;;8.16;100.00
55263;BME280;41125;48.752;9.168;2023-03-14T02:52:00;95154.44;;;8.21;100.00
55263;BME280;41125;48.752;9.168;2023-03-14T02:52:32;95148.06;;;8.17;100.00
55263;BME280;41125;48.752;9.168;2023-03-14T02:53:03;95149.19;;;8.16;100.00
55263;BME280;41125;48.752;9.168;2023-03-14T02:53:36;95143.94;;;8.11;100.00
55263;BME280;41125;48.752;9.168;2023-03-14T02:54:09;95144.25;;;8.18;100.00
55263;BME280;41125;48.752;9.168;2023-03-14T02:54:40;95144.88;;;8.15;100.00
55263;BME280;41125;48.752;9.168;2023-03-14T02:55:12;95132.50;;;8.14;100.00
55263;BME280;41125;48.752;9.168;2023-03-14T02:55:48;95134.09;;;8.15;100.00
55263;BME280;41125;48.752;9.168;2023-03-14T02:56:19;95135.19;;;8.14;100.00
55263;BME280;41125;48.752;9.168;2023-03-14T02:56:51;95135.03;;;8.10;100.00
55263;BME280;41125;48.752;9.168;2023-03-14T02:57:23;95139.16;;;8.07;100.00
55263;BME280;41125;48.752;9.168;2023-03-14T02:57:54;95139.81;;;8.13;100.00
55263;BME280;41125;48.752;9.168;2023-03-14T02:58:26;95145.22;;;8.22;99.83
55263;BME280;41125;48.752;9.168;2023-03-14T02:58:58;95141.88;;;8.33;99.08
55263;BME280;41125;48.752;9.168;2023-03-14T02:59:29;95144.25;;;8.35;98.30
55263;BME280;41125;48.752;9.168;2023-03-14T03:00:01;95134.72;;;8.29;98.26
55263;BME280;41125;48.752;9.168;2023-03-14T03:00:36;95140.91;;;8.21;98.16
55263;BME280;41125;48.752;9.168;2023-03-14T03:01:08;95142.66;;;8.17;99.00
55263;BME280;41125;48.752;9.168;2023-03-14T03:01:39;95126.28;;;8.22;98.87
55263;BME280;41125;48.752;9.168;2023-03-14T03:02:11;95127.72;;;8.28;98.27
55263;BME280;41125;48.752;9.168;2023-03-14T03:02:42;95133.13;;;8.28;97.88
55263;BME280;41125;48.752;9.168;2023-03-14T03:03:14;95124.53;;;8.26;97.88
55263;BME280;41125;48.752;9.168;2023-03-14T03:03:46;95121.34;;;8.32;97.63
55263;BME280;41125;48.752;9.168;2023-03-14T03:04:17;95126.44;;;8.34;96.51